createdAt,value
2023-04-01T00:00:35.265Z,2.22
2023-04-01T00:03:03.039Z,2.63
2023-04-01T00:05:30.994Z,2.22
2023-04-01T00:07:59.231Z,2.90
2023-04-01T00:10:27.014Z,2.40
2023-04-01T00:12:56.738Z,2.40
2023-04-01T00:15:24.443Z,2.78
2023-04-01T00:17:52.052Z,2.67
2023-04-01T00:20:19.934Z,2.50
2023-04-01T00:22:47.904Z,2.60
2023-04-01T00:25:16.746Z,2.35
2023-04-01T00:27:44.386Z,2.28
2023-04-01T00:30:13.962Z,2.10
2023-04-01T00:32:41.696Z,2.38
2023-04-01T00:35:10.227Z,2.70
2023-04-01T00:37:40.264Z,2.50
2023-04-01T00:40:10.020Z,1.85
2023-04-01T00:42:39.826Z,2.08
2023-04-01T00:45:30.023Z,2.03
2023-04-01T00:48:01.904Z,2.20
2023-04-01T00:50:32.887Z,2.10
2023-04-01T00:53:02.033Z,2.30
2023-04-01T00:55:32.691Z,2.13
2023-04-01T00:58:01.915Z,2.33
2023-04-01T01:00:32.294Z,2.10
2023-04-01T01:02:59.972Z,2.05
2023-04-01T01:05:49.614Z,2.10
2023-04-01T01:08:29.489Z,1.92
2023-04-01T01:10:57.826Z,2.00
2023-04-01T01:13:35.296Z,2.38
2023-04-01T01:16:12.393Z,2.03
2023-04-01T01:18:47.159Z,2.20
2023-04-01T01:21:35.319Z,2.03
2023-04-01T01:24:19.740Z,1.98
2023-04-01T01:27:07.991Z,2.00
2023-04-01T01:29:57.747Z,2.10
2023-04-01T01:32:39.340Z,2.40
2023-04-01T01:35:22.145Z,2.30
2023-04-01T01:37:55.739Z,2.33
2023-04-01T01:40:26.756Z,2.50
2023-04-01T01:42:58.815Z,2.33
2023-04-01T01:45:35.177Z,2.30
2023-04-01T01:48:06.201Z,2.50
2023-04-01T01:51:01.783Z,2.33
2023-04-01T01:53:29.343Z,2.40
2023-04-01T01:55:56.990Z,2.20
2023-04-01T01:58:27.897Z,2.38
2023-04-01T02:00:59.756Z,2.40
2023-04-01T02:06:00.430Z,2.90
2023-04-01T02:08:35.894Z,2.40
2023-04-01T02:11:08.796Z,3.08
2023-04-01T02:13:46.074Z,2.67
2023-04-01T02:16:17.229Z,2.50
2023-04-01T02:18:47.655Z,2.83
2023-04-01T02:21:18.780Z,2.80
2023-04-01T02:23:49.731Z,2.55
2023-04-01T02:26:18.437Z,2.83
2023-04-01T02:28:48.445Z,2.80
2023-04-01T02:31:16.921Z,2.70
2023-04-01T02:34:10.708Z,2.97
2023-04-01T02:36:40.392Z,2.72
2023-04-01T02:39:11.767Z,2.78
2023-04-01T02:41:43.647Z,2.92
2023-04-01T02:44:11.740Z,3.00
2023-04-01T02:46:40.900Z,2.90
2023-04-01T02:49:08.823Z,3.13
2023-04-01T02:52:01.793Z,3.13
2023-04-01T02:54:30.824Z,2.85
2023-04-01T02:56:58.403Z,3.28
2023-04-01T02:59:26.828Z,3.00
2023-04-01T03:01:55.188Z,3.00
2023-04-01T03:04:22.834Z,2.83
2023-04-01T03:06:50.641Z,2.80
2023-04-01T03:09:18.753Z,2.90
2023-04-01T03:11:47.587Z,2.60
2023-04-01T03:14:15.775Z,2.85
2023-04-01T03:16:43.687Z,2.40
2023-04-01T03:19:12.177Z,2.38
2023-04-01T03:21:40.760Z,2.10
2023-04-01T03:24:09.833Z,2.13
2023-04-01T03:26:37.405Z,2.25
2023-04-01T03:29:06.452Z,2.10
2023-04-01T03:31:35.281Z,2.30
2023-04-01T03:34:03.288Z,2.70
2023-04-01T03:36:31.263Z,2.40
2023-04-01T03:38:58.859Z,2.25
2023-04-01T03:41:37.885Z,2.58
2023-04-01T03:44:07.025Z,2.60
2023-04-01T03:46:36.367Z,2.50
2023-04-01T03:49:28.717Z,2.50
2023-04-01T03:54:24.108Z,2.65
2023-04-01T03:56:51.803Z,2.60
2023-04-01T03:59:21.513Z,2.88
2023-04-01T04:01:50.310Z,2.70
2023-04-01T04:04:18.701Z,2.80
2023-04-01T04:06:47.841Z,3.20
2023-04-01T04:09:20.791Z,2.97
2023-04-01T04:11:48.389Z,3.05
2023-04-01T04:14:15.941Z,2.88
2023-04-01T04:16:45.759Z,2.92
2023-04-01T04:19:14.229Z,2.88
2023-04-01T04:21:42.869Z,2.78
2023-04-01T04:24:11.733Z,2.50
2023-04-01T04:26:59.100Z,2.50
2023-04-01T04:29:26.632Z,2.50
2023-04-01T04:31:56.697Z,2.30
2023-04-01T04:34:25.834Z,2.42
2023-04-01T04:36:57.497Z,2.40
2023-04-01T04:39:30.103Z,2.20
2023-04-01T04:41:59.857Z,2.20
2023-04-01T04:44:28.122Z,2.00
2023-04-01T04:46:58.552Z,2.00
2023-04-01T04:49:26.398Z,1.80
2023-04-01T04:51:54.227Z,1.67
2023-04-01T04:54:25.572Z,1.50
2023-04-01T04:56:59.825Z,1.75
2023-04-01T04:59:30.170Z,1.75
2023-04-01T05:02:09.872Z,1.60
2023-04-01T05:04:38.895Z,1.40
2023-04-01T05:07:12.152Z,1.58
2023-04-01T05:09:39.878Z,1.45
2023-04-01T05:12:08.127Z,1.55
2023-04-01T05:14:54.679Z,1.35
2023-04-01T05:17:23.916Z,2.72
2023-04-01T05:19:51.846Z,1.95
2023-04-01T05:22:21.774Z,1.70
2023-04-01T05:24:49.771Z,1.95
2023-04-01T05:27:20.767Z,2.20
2023-04-01T05:29:48.846Z,2.20
2023-04-01T05:32:36.926Z,2.50
2023-04-01T05:35:09.067Z,2.80
2023-04-01T05:37:37.038Z,3.13
2023-04-01T05:40:07.360Z,3.00
2023-04-01T05:42:36.946Z,3.63
2023-04-01T05:45:07.484Z,3.85
2023-04-01T05:48:03.099Z,3.65
2023-04-01T05:50:35.546Z,3.70
2023-04-01T05:53:03.931Z,3.75
2023-04-01T05:55:31.870Z,4.07
2023-04-01T05:58:01.376Z,4.32
2023-04-01T06:00:30.119Z,4.15
2023-04-01T06:03:00.710Z,4.40
2023-04-01T06:05:33.977Z,4.97
2023-04-01T06:08:07.131Z,5.13
2023-04-01T06:10:47.122Z,5.18
2023-04-01T06:13:27.015Z,5.18
2023-04-01T06:16:06.602Z,4.82
2023-04-01T06:18:54.937Z,5.20
2023-04-01T06:21:39.777Z,5.45
2023-04-01T06:24:33.032Z,5.10
2023-04-01T06:27:09.730Z,4.35
2023-04-01T06:29:56.796Z,4.50
2023-04-01T06:33:29.702Z,4.43
2023-04-01T06:36:28.034Z,4.05
2023-04-01T06:39:12.440Z,3.70
2023-04-01T06:42:10.770Z,3.70
2023-04-01T06:44:54.930Z,3.85
2023-04-01T06:47:55.354Z,3.80
2023-04-01T06:50:51.870Z,3.47
2023-04-01T06:54:08.155Z,3.70
2023-04-01T06:57:00.048Z,3.45
2023-04-01T06:59:32.792Z,3.42
2023-04-01T07:02:03.623Z,3.58
2023-04-01T07:04:33.888Z,3.60
2023-04-01T07:07:06.351Z,3.50
2023-04-01T07:09:40.407Z,3.70
2023-04-01T07:12:50.839Z,3.80
2023-04-01T07:16:11.668Z,3.50
2023-04-01T07:18:47.849Z,3.53
2023-04-01T07:21:25.427Z,3.20
2023-04-01T07:23:59.594Z,3.70
2023-04-01T07:26:41.389Z,3.67
2023-04-01T07:29:13.830Z,3.90
2023-04-01T07:32:11.766Z,3.67
2023-04-01T07:34:47.904Z,3.78
2023-04-01T07:37:24.241Z,3.78
2023-04-01T07:40:27.707Z,3.60
2023-04-01T07:43:16.862Z,3.40
2023-04-01T07:46:00.967Z,3.90
2023-04-01T07:48:34.878Z,3.33
2023-04-01T07:51:15.843Z,3.05
2023-04-01T07:53:51.228Z,3.78
2023-04-01T07:56:25.943Z,3.85
2023-04-01T07:59:04.838Z,3.78
2023-04-01T08:02:10.858Z,3.70
2023-04-01T08:04:53.796Z,3.70
2023-04-01T08:07:24.884Z,3.60
2023-04-01T08:10:20.289Z,3.67
2023-04-01T08:13:17.837Z,4.15
2023-04-01T08:16:22.203Z,4.15
2023-04-01T08:19:02.880Z,4.20
2023-04-01T08:21:37.799Z,4.30
2023-04-01T08:24:20.690Z,4.07
2023-04-01T08:26:54.350Z,4.18
2023-04-01T08:29:24.966Z,3.95
2023-04-01T08:32:00.212Z,3.65
2023-04-01T08:34:34.916Z,3.72
2023-04-01T08:37:08.786Z,3.67
2023-04-01T08:39:40.440Z,3.50
2023-04-01T08:45:32.233Z,3.47
2023-04-01T08:48:33.999Z,4.03
2023-04-01T08:51:20.439Z,4.30
2023-04-01T08:54:04.579Z,4.13
2023-04-01T08:56:38.141Z,4.05
2023-04-01T08:59:36.571Z,3.92
2023-04-01T09:02:51.919Z,4.13
2023-04-01T09:06:01.873Z,4.05
2023-04-01T09:08:44.212Z,4.35
2023-04-01T09:11:24.794Z,4.50
2023-04-01T09:14:21.264Z,5.20
2023-04-01T09:17:33.819Z,5.20
2023-04-01T09:20:21.802Z,5.50
2023-04-01T09:23:07.767Z,5.25
2023-04-01T09:25:50.962Z,5.90
2023-04-01T09:28:23.770Z,5.60
2023-04-01T09:31:19.444Z,6.10
2023-04-01T09:34:28.023Z,5.97
2023-04-01T09:37:19.549Z,5.93
2023-04-01T09:40:03.971Z,6.65
2023-04-01T09:42:45.330Z,6.43
2023-04-01T09:45:43.898Z,6.00
2023-04-01T09:48:22.795Z,6.40
2023-04-01T09:51:02.088Z,7.07
2023-04-01T09:53:49.004Z,6.80
2023-04-01T09:56:51.545Z,6.60
2023-04-01T09:59:51.957Z,6.72
2023-04-01T10:03:35.352Z,6.20
2023-04-01T10:06:35.954Z,7.03
2023-04-01T10:09:58.424Z,6.35
2023-04-01T10:13:02.246Z,7.20
2023-04-01T10:16:05.218Z,6.95
2023-04-01T10:19:12.568Z,6.78
2023-04-01T10:22:02.876Z,6.35
2023-04-01T10:25:26.953Z,6.68
2023-04-01T10:28:18.439Z,6.07
2023-04-01T10:31:38.183Z,6.38
2023-04-01T10:34:51.316Z,6.35
2023-04-01T10:37:39.894Z,5.05
2023-04-01T10:40:39.556Z,4.70
2023-04-01T10:43:38.878Z,4.43
2023-04-01T10:46:36.933Z,4.70
2023-04-01T10:49:32.788Z,5.10
2023-04-01T10:52:32.412Z,4.45
2023-04-01T10:55:46.920Z,5.68
2023-04-01T10:58:58.631Z,5.60
2023-04-01T11:02:11.372Z,5.70
2023-04-01T11:05:45.975Z,5.65
2023-04-01T11:08:50.771Z,3.60
2023-04-01T11:12:08.280Z,3.25
2023-04-01T11:15:10.401Z,3.92
2023-04-01T11:18:28.792Z,4.20
2023-04-01T11:21:30.990Z,4.18
2023-04-01T11:26:58.831Z,4.18
2023-04-01T11:30:01.886Z,4.05
2023-04-01T11:32:48.216Z,4.13
2023-04-01T11:35:40.890Z,3.90
2023-04-01T11:38:23.911Z,4.40
2023-04-01T11:41:24.633Z,4.13
2023-04-01T11:44:19.941Z,4.20
2023-04-01T11:47:23.228Z,4.60
2023-04-01T11:50:03.023Z,4.30
2023-04-01T11:52:54.253Z,4.70
2023-04-01T11:58:25.488Z,5.32
2023-04-01T12:01:13.005Z,5.18
2023-04-01T12:04:01.727Z,5.15
2023-04-01T12:06:37.344Z,5.28
2023-04-01T12:09:16.907Z,4.63
2023-04-01T12:11:57.799Z,4.93
2023-04-01T12:14:44.148Z,4.80
2023-04-01T12:17:28.324Z,5.00
2023-04-01T12:20:03.690Z,4.53
2023-04-01T12:22:44.665Z,4.65
2023-04-01T12:25:40.915Z,4.28
2023-04-01T12:28:24.054Z,4.10
2023-04-01T12:31:06.298Z,4.30
2023-04-01T12:34:04.779Z,3.50
2023-04-01T12:36:42.561Z,3.47
2023-04-01T12:39:30.269Z,3.47
2023-04-01T12:42:15.004Z,3.67
2023-04-01T12:45:04.146Z,3.80
2023-04-01T12:47:51.695Z,3.95
2023-04-01T12:50:33.877Z,4.32
2023-04-01T12:53:21.434Z,3.92
2023-04-01T12:55:53.398Z,3.22
2023-04-01T12:59:00.796Z,3.10
2023-04-01T13:01:54.775Z,2.80
2023-04-01T13:04:45.840Z,2.78
2023-04-01T13:07:38.942Z,3.00
2023-04-01T13:10:17.299Z,2.95
2023-04-01T13:13:05.115Z,2.90
2023-04-01T13:15:42.868Z,3.38
2023-04-01T13:18:50.653Z,3.15
2023-04-01T13:21:34.233Z,3.35
2023-04-01T13:24:12.002Z,3.10
2023-04-01T13:26:54.868Z,3.47
2023-04-01T13:29:27.673Z,3.20
2023-04-01T13:32:14.657Z,3.65
2023-04-01T13:34:57.252Z,3.22
2023-04-01T13:37:44.047Z,3.50
2023-04-01T13:40:36.299Z,3.15
2023-04-01T13:43:10.763Z,3.20
2023-04-01T13:45:52.088Z,3.25
2023-04-01T13:48:42.804Z,3.22
2023-04-01T13:51:54.573Z,3.10
2023-04-01T13:55:17.891Z,2.72
2023-04-01T13:58:02.473Z,2.40
2023-04-01T14:00:40.941Z,1.98
2023-04-01T14:03:30.106Z,1.85
2023-04-01T14:06:08.126Z,1.50
2023-04-01T14:08:51.086Z,1.20
2023-04-01T14:11:28.384Z,1.10
2023-04-01T14:14:04.543Z,1.00
2023-04-01T14:16:56.926Z,1.20
2023-04-01T14:19:42.856Z,1.25
2023-04-01T14:22:19.964Z,1.38
2023-04-01T14:25:16.884Z,1.50
2023-04-01T14:27:58.796Z,1.42
2023-04-01T14:30:38.098Z,1.50
2023-04-01T14:33:23.004Z,1.30
2023-04-01T14:36:04.898Z,2.58
2023-04-01T14:38:49.741Z,3.43
2023-04-01T14:41:32.553Z,2.92
2023-04-01T14:44:20.961Z,3.28
2023-04-01T14:47:18.800Z,3.08
2023-04-01T14:49:49.919Z,3.40
2023-04-01T14:52:24.887Z,3.45
2023-04-01T14:54:53.778Z,3.28
2023-04-01T14:57:29.031Z,3.58
2023-04-01T15:00:03.146Z,3.20
2023-04-01T15:02:46.870Z,3.45
2023-04-01T15:05:29.979Z,2.72
2023-04-01T15:08:19.349Z,2.70
2023-04-01T15:11:23.660Z,2.67
2023-04-01T15:14:17.853Z,3.20
2023-04-01T15:16:57.608Z,3.45
2023-04-01T15:19:33.459Z,3.17
2023-04-01T15:22:27.786Z,3.80
2023-04-01T15:25:07.762Z,3.80
2023-04-01T15:27:47.810Z,3.92
2023-04-01T15:33:24.706Z,3.92
2023-04-01T15:35:58.093Z,4.20
2023-04-01T15:38:37.561Z,4.60
2023-04-01T15:41:15.409Z,6.40
2023-04-01T15:43:45.139Z,5.57
2023-04-01T15:46:32.683Z,6.93
2023-04-01T15:49:13.296Z,7.07
2023-04-01T15:51:50.456Z,4.75
2023-04-01T15:54:56.154Z,4.10
2023-04-01T15:57:33.104Z,3.85
2023-04-01T16:00:15.935Z,3.35
2023-04-01T16:02:51.998Z,2.83
2023-04-01T16:05:37.239Z,2.40
2023-04-01T16:08:40.066Z,3.33
2023-04-01T16:11:20.468Z,2.60
2023-04-01T16:14:01.275Z,2.83
2023-04-01T16:16:42.673Z,2.58
2023-04-01T16:19:39.854Z,2.80
2023-04-01T16:22:11.874Z,2.80
2023-04-01T16:24:45.384Z,2.80
2023-04-01T16:27:19.902Z,2.90
2023-04-01T16:29:54.571Z,2.70
2023-04-01T16:32:36.404Z,2.80
2023-04-01T16:35:23.510Z,2.63
2023-04-01T16:37:54.970Z,3.47
2023-04-01T16:40:35.541Z,3.03
2023-04-01T16:43:14.296Z,4.20
2023-04-01T16:45:49.827Z,4.72
2023-04-01T16:48:23.429Z,4.75
2023-04-01T16:50:57.350Z,4.60
2023-04-01T16:53:39.380Z,4.47
2023-04-01T16:56:15.176Z,5.30
2023-04-01T16:58:45.387Z,4.70
2023-04-01T17:01:19.445Z,4.90
2023-04-01T17:03:51.597Z,4.40
2023-04-01T17:06:33.387Z,3.72
2023-04-01T17:09:17.451Z,4.32
2023-04-01T17:11:54.825Z,4.93
2023-04-01T17:14:28.814Z,3.65
2023-04-01T17:17:20.254Z,3.38
2023-04-01T17:19:59.092Z,2.67
2023-04-01T17:22:35.462Z,3.08
2023-04-01T17:25:22.665Z,4.88
2023-04-01T17:27:58.879Z,3.50
2023-04-01T17:30:33.247Z,5.55
2023-04-01T17:33:29.743Z,4.55
2023-04-01T17:36:01.402Z,4.80
2023-04-01T17:38:47.095Z,5.43
2023-04-01T17:41:27.760Z,6.78
2023-04-01T17:44:03.544Z,5.38
2023-04-01T17:46:42.953Z,4.85
2023-04-01T17:49:29.835Z,5.90
2023-04-01T17:52:05.903Z,4.03
2023-04-01T17:54:47.788Z,4.80
2023-04-01T17:57:44.808Z,4.15
2023-04-01T18:00:30.121Z,8.02
2023-04-01T18:03:15.757Z,3.33
2023-04-01T18:05:59.861Z,4.50
2023-04-01T18:08:46.918Z,3.72
2023-04-01T18:11:28.837Z,3.10
2023-04-01T18:14:14.897Z,1.90
2023-04-01T18:17:06.238Z,2.03
2023-04-01T18:19:44.896Z,1.70
2023-04-01T18:22:20.833Z,2.05
2023-04-01T18:24:59.057Z,1.70
2023-04-01T18:27:33.852Z,1.80
2023-04-01T18:30:09.400Z,1.60
2023-04-01T18:32:45.761Z,1.70
2023-04-01T18:35:29.035Z,1.55
2023-04-01T18:38:02.079Z,1.67
2023-04-01T18:40:34.278Z,3.00
2023-04-01T18:43:16.740Z,22.83
2023-04-01T18:45:51.372Z,13.75
2023-04-01T18:48:44.851Z,12.88
2023-04-01T18:51:18.426Z,7.90
2023-04-01T18:53:54.583Z,10.02
2023-04-01T18:56:29.084Z,6.20
2023-04-01T18:59:04.479Z,7.57
2023-04-01T19:01:41.553Z,5.57
2023-04-01T19:04:18.847Z,6.95
2023-04-01T19:06:50.320Z,8.65
2023-04-01T19:09:26.839Z,9.10
2023-04-01T19:12:30.864Z,6.68
2023-04-01T19:15:23.750Z,6.72
2023-04-01T19:18:04.457Z,6.15
2023-04-01T19:20:39.141Z,8.77
2023-04-01T19:23:30.122Z,6.22
2023-04-01T19:26:00.672Z,6.63
2023-04-01T19:28:42.026Z,4.72
2023-04-01T19:31:25.173Z,3.55
2023-04-01T19:34:06.508Z,2.20
2023-04-01T19:36:47.310Z,1.98
2023-04-01T19:39:33.875Z,1.73
2023-04-01T19:42:10.320Z,1.80
2023-04-01T19:44:49.713Z,2.05
2023-04-01T19:47:26.492Z,1.80
2023-04-01T19:50:06.552Z,1.90
2023-04-01T19:52:39.853Z,1.80
2023-04-01T19:55:20.061Z,1.70
2023-04-01T19:57:54.792Z,2.00
2023-04-01T20:00:27.904Z,2.20
2023-04-01T20:03:05.342Z,2.20
2023-04-01T20:05:56.114Z,2.17
2023-04-01T20:08:34.818Z,2.25
2023-04-01T20:11:21.782Z,2.10
2023-04-01T20:14:00.931Z,2.17
2023-04-01T20:16:51.344Z,2.22
2023-04-01T20:19:29.696Z,2.10
2023-04-01T20:22:00.321Z,1.80
2023-04-01T20:24:33.498Z,1.70
2023-04-01T20:27:09.218Z,1.90
2023-04-01T20:29:41.597Z,1.90
2023-04-01T20:32:27.222Z,2.00
2023-04-01T20:35:19.918Z,1.63
2023-04-01T20:37:55.661Z,1.80
2023-04-01T20:40:33.303Z,1.90
2023-04-01T20:43:31.854Z,1.80
2023-04-01T20:46:03.977Z,1.85
2023-04-01T20:48:53.185Z,1.90
2023-04-01T20:51:27.249Z,1.92
2023-04-01T20:54:07.491Z,1.73
2023-04-01T20:56:46.040Z,1.63
2023-04-01T20:59:42.560Z,1.88
2023-04-01T21:02:28.852Z,1.80
2023-04-01T21:05:26.434Z,1.80
2023-04-01T21:07:59.703Z,1.90
2023-04-01T21:10:42.194Z,1.90
2023-04-01T21:13:34.555Z,1.70
2023-04-01T21:16:16.724Z,1.90
2023-04-01T21:21:48.856Z,2.00
2023-04-01T21:24:41.978Z,1.90
2023-04-01T21:27:15.352Z,2.22
2023-04-01T21:29:55.107Z,2.55
2023-04-01T21:32:36.505Z,3.67
2023-04-01T21:35:09.307Z,6.22
2023-04-01T21:37:58.834Z,9.38
2023-04-01T21:41:09.149Z,8.27
2023-04-01T21:44:19.596Z,6.72
2023-04-01T21:47:28.051Z,14.43
2023-04-01T21:50:31.862Z,8.35
2023-04-01T21:53:20.442Z,10.73
2023-04-01T21:56:24.677Z,13.32
2023-04-01T21:59:20.323Z,9.85
2023-04-01T22:02:19.760Z,12.25
2023-04-01T22:04:55.268Z,5.50
2023-04-01T22:07:27.812Z,7.90
2023-04-01T22:10:04.873Z,8.27
2023-04-01T22:12:39.464Z,9.10
2023-04-01T22:15:20.993Z,11.45
2023-04-01T22:17:55.852Z,12.10
2023-04-01T22:20:31.390Z,8.73
2023-04-01T22:23:14.424Z,6.53
2023-04-01T22:25:48.393Z,6.82
2023-04-01T22:28:22.046Z,9.15
2023-04-01T22:30:54.424Z,4.35
2023-04-01T22:33:31.168Z,12.68
2023-04-01T22:36:09.904Z,3.55
2023-04-01T22:38:56.548Z,2.83
2023-04-01T22:41:35.966Z,3.13
2023-04-01T22:44:03.761Z,2.80
2023-04-01T22:46:53.018Z,3.35
2023-04-01T22:49:28.778Z,2.90
2023-04-01T22:52:05.840Z,7.22
2023-04-01T22:54:40.086Z,5.20
2023-04-01T22:57:14.089Z,5.15
2023-04-01T22:59:47.433Z,3.60
2023-04-01T23:02:20.596Z,2.53
2023-04-01T23:04:55.874Z,2.10
2023-04-01T23:07:47.444Z,2.42
2023-04-01T23:10:21.864Z,2.10
2023-04-01T23:12:51.131Z,2.20
2023-04-01T23:15:20.154Z,2.20
2023-04-01T23:18:13.627Z,2.20
2023-04-01T23:21:09.852Z,2.35
2023-04-01T23:23:50.697Z,2.17
2023-04-01T23:26:25.115Z,2.15
2023-04-01T23:28:55.012Z,2.33
2023-04-01T23:31:33.238Z,2.30
2023-04-01T23:34:04.403Z,2.97
2023-04-01T23:36:41.871Z,3.58
2023-04-01T23:39:23.921Z,4.80
2023-04-01T23:41:54.189Z,4.75
2023-04-01T23:44:22.488Z,5.80
2023-04-01T23:46:50.993Z,3.88
2023-04-01T23:49:24.791Z,2.60
2023-04-01T23:51:56.821Z,2.67
2023-04-01T23:57:01.612Z,2.17
2023-04-01T23:59:34.138Z,2.40
